Delta Virtual Airport Information Service

Hong Kong International Airport

ICAO: VHHH Country: Hong Kong
Latitude: 22.3089 Longitude: 113.915
Latest Arrival : DAC1016 (OMDB-VHHH) Latest Departure : HVN595 (VHHH-VVTS)


WX CaptureLIVE
Data provided by noaa.gov | Fetched at 15:21:22

METAR : VHHH 162000Z 09006KT 060V120 9999 -RA FEW035 24/20 Q1014 NOSIG

TAF : VHHH 161700Z 1618/1724 06010KT 9000 FEW015 SCT030 TX27/1706Z TN23/1622Z TN22/1723Z TEMPO 1621/1703 4000 SHRA FEW010CB SCT030 TEMPO 1703/1709 33010KT


Runway Data for VHHH
Data provided by openaviationdata.com

Runway ID Mag Var Hdg Length Elevation Surface ILS Freq ILS Id ILS Slope
07L -2 72° 12431 ft 28 ft Asphalt 111.1 IZSL 3
07R -2 72° 12431 ft 28 ft Asphalt 109.3 ISR 3
25L -2 252° 12431 ft 28 ft Asphalt 108.9 IFL 3
25R -2 252° 12431 ft 28 ft Asphalt 110.9 ITFR 3

Hong Kong International Airport, Hong Kong
Use only for reference purposes



Not for navigational purposes.